createdAt,value
2018-08-25T00:00:08.674Z,1001.3
2018-08-25T00:01:11.569Z,1001.4
2018-08-25T00:02:14.029Z,1001.3
2018-08-25T00:03:16.904Z,1001.4
2018-08-25T00:04:19.566Z,1001.4
2018-08-25T00:05:22.298Z,1001.4
2018-08-25T00:06:25.822Z,1001.4
2018-08-25T00:07:28.660Z,1001.4
2018-08-25T00:08:32.051Z,1001.4
2018-08-25T00:09:36.273Z,1001.4
2018-08-25T00:10:40.059Z,1001.4
2018-08-25T00:11:43.327Z,1001.4
2018-08-25T00:12:46.098Z,1001.4
2018-08-25T00:13:48.200Z,1001.3
2018-08-25T00:14:50.294Z,1001.4
2018-08-25T00:15:52.774Z,1001.4
2018-08-25T00:16:54.893Z,1001.4
2018-08-25T00:17:57.273Z,1001.4
2018-08-25T00:18:59.375Z,1001.3
2018-08-25T00:20:01.483Z,1001.3
2018-08-25T00:21:03.875Z,1001.3
2018-08-25T00:22:05.998Z,1001.3
2018-08-25T00:23:08.098Z,1001.3
2018-08-25T00:24:10.200Z,1001.3
2018-08-25T00:25:12.303Z,1001.3
2018-08-25T00:26:14.417Z,1001.2
2018-08-25T00:27:16.502Z,1001.3
2018-08-25T00:28:18.883Z,1001.3
2018-08-25T00:29:20.994Z,1001.3
2018-08-25T00:30:23.079Z,1001.3
2018-08-25T00:31:25.177Z,1001.3
2018-08-25T00:32:27.279Z,1001.3
2018-08-25T00:33:29.749Z,1001.3
2018-08-25T00:34:31.856Z,1001.2
2018-08-25T00:35:33.952Z,1001.2
2018-08-25T00:36:36.061Z,1001.2
2018-08-25T00:37:38.479Z,1001.2
2018-08-25T00:38:40.607Z,1001.3
2018-08-25T00:39:43.177Z,1001.2
2018-08-25T00:40:45.508Z,1001.2
2018-08-25T00:41:48.082Z,1001.2
2018-08-25T00:42:50.221Z,1001.2
2018-08-25T00:43:52.786Z,1001.2
2018-08-25T00:44:55.070Z,1001.2
2018-08-25T00:45:57.205Z,1001.2
2018-08-25T00:46:59.557Z,1001.2
2018-08-25T00:48:02.015Z,1001.2
2018-08-25T00:49:04.693Z,1001.2
2018-08-25T00:50:07.043Z,1001.2
2018-08-25T00:51:09.246Z,1001.2
2018-08-25T00:52:11.573Z,1001.2
2018-08-25T00:53:13.722Z,1001.1
2018-08-25T00:54:15.896Z,1001.1
2018-08-25T00:55:18.049Z,1001
2018-08-25T00:56:20.278Z,1001.1
2018-08-25T00:57:22.897Z,1001.1
2018-08-25T00:58:25.149Z,1001.1
2018-08-25T00:59:27.729Z,1001
2018-08-25T01:00:30.069Z,1001.1
2018-08-25T01:01:33.442Z,1001.1
2018-08-25T01:02:35.987Z,1001
2018-08-25T01:03:38.648Z,1001.1
2018-08-25T01:04:41.558Z,1001.1
2018-08-25T01:05:43.924Z,1001.1
2018-08-25T01:06:46.760Z,1001.2
2018-08-25T01:07:49.016Z,1001.2
2018-08-25T01:08:51.719Z,1001.2
2018-08-25T01:09:55.943Z,1001.2
2018-08-25T01:10:59.452Z,1001.1
2018-08-25T01:12:03.525Z,1001.2
2018-08-25T01:13:07.637Z,1001.1
2018-08-25T01:14:11.274Z,1001.1
2018-08-25T01:15:15.165Z,1001.1
2018-08-25T01:16:18.610Z,1001.1
2018-08-25T01:17:22.930Z,1001.1
2018-08-25T01:18:26.497Z,1001.1
2018-08-25T01:19:29.468Z,1001.1
2018-08-25T01:20:32.315Z,1001.1
2018-08-25T01:21:34.922Z,1001.1
2018-08-25T01:22:37.400Z,1001
2018-08-25T01:23:40.861Z,1001.1
2018-08-25T01:24:43.927Z,1001
2018-08-25T01:25:46.183Z,1001
2018-08-25T01:26:48.481Z,1001
2018-08-25T01:27:50.938Z,1001
2018-08-25T01:28:53.686Z,1001
2018-08-25T01:29:56.322Z,1001
2018-08-25T01:30:58.663Z,1001
2018-08-25T01:32:01.178Z,1001
2018-08-25T01:33:03.547Z,1001
2018-08-25T01:34:05.894Z,1001
2018-08-25T01:35:08.234Z,1001
2018-08-25T01:36:10.917Z,1001
2018-08-25T01:37:13.140Z,1001
2018-08-25T01:38:15.500Z,1001
2018-08-25T01:39:17.732Z,1001
2018-08-25T01:40:20.189Z,1001
2018-08-25T01:41:22.663Z,1001
2018-08-25T01:42:25.350Z,1001
2018-08-25T01:43:27.987Z,1001
2018-08-25T01:44:30.930Z,1000.9
2018-08-25T01:45:33.116Z,1001
2018-08-25T01:46:35.792Z,1001
2018-08-25T01:47:38.006Z,1000.9
2018-08-25T01:48:40.582Z,1000.9
2018-08-25T01:49:42.889Z,1000.9
2018-08-25T01:50:45.121Z,1000.9
2018-08-25T01:51:47.693Z,1000.9
2018-08-25T01:52:49.988Z,1000.9
2018-08-25T01:53:52.600Z,1000.9
2018-08-25T01:54:54.986Z,1000.9
2018-08-25T01:55:57.332Z,1000.9
2018-08-25T01:57:00.038Z,1000.9
2018-08-25T01:58:03.117Z,1000.9
2018-08-25T01:59:05.284Z,1000.9
2018-08-25T02:00:07.505Z,1000.9
2018-08-25T02:01:09.848Z,1000.9
2018-08-25T02:02:12.849Z,1000.8
2018-08-25T02:03:15.035Z,1000.8
2018-08-25T02:04:17.248Z,1000.8
2018-08-25T02:05:19.486Z,1000.8
2018-08-25T02:06:21.723Z,1000.8
2018-08-25T02:07:24.814Z,1000.8
2018-08-25T02:08:27.261Z,1000.7
2018-08-25T02:09:29.939Z,1000.7
2018-08-25T02:10:32.331Z,1000.7
2018-08-25T02:11:34.963Z,1000.7
2018-08-25T02:12:37.228Z,1000.7
2018-08-25T02:13:39.585Z,1000.7
2018-08-25T02:14:41.873Z,1000.8
2018-08-25T02:15:44.155Z,1000.8
2018-08-25T02:16:46.762Z,1000.8
2018-08-25T02:17:49.462Z,1000.8
2018-08-25T02:18:51.987Z,1000.8
2018-08-25T02:19:54.407Z,1000.7
2018-08-25T02:20:56.929Z,1000.8
2018-08-25T02:21:59.280Z,1000.7
2018-08-25T02:23:01.555Z,1000.8
2018-08-25T02:24:03.947Z,1000.8
2018-08-25T02:25:07.097Z,1000.7
2018-08-25T02:26:09.994Z,1000.7
2018-08-25T02:27:12.235Z,1000.7
2018-08-25T02:28:15.289Z,1000.7
2018-08-25T02:29:17.803Z,1000.7
2018-08-25T02:30:20.198Z,1000.7
2018-08-25T02:31:23.102Z,1000.7
2018-08-25T02:32:25.607Z,1000.7
2018-08-25T02:33:28.901Z,1000.7
2018-08-25T02:34:32.090Z,1000.7
2018-08-25T02:35:34.767Z,1000.8
2018-08-25T02:36:37.438Z,1000.7
2018-08-25T02:37:40.423Z,1000.7
2018-08-25T02:38:43.443Z,1000.7
2018-08-25T02:39:47.553Z,1000.7
2018-08-25T02:40:50.018Z,1000.7
2018-08-25T02:41:52.738Z,1000.7
2018-08-25T02:42:55.527Z,1000.7
2018-08-25T02:43:59.370Z,1000.6
2018-08-25T02:45:01.782Z,1000.7
2018-08-25T02:46:04.173Z,1000.7
2018-08-25T02:47:06.578Z,1000.7
2018-08-25T02:48:08.667Z,1000.7
2018-08-25T02:49:11.154Z,1000.7
2018-08-25T02:50:13.944Z,1000.7
2018-08-25T02:51:16.048Z,1000.7
2018-08-25T02:52:18.139Z,1000.6
2018-08-25T02:53:20.529Z,1000.6
2018-08-25T02:54:23.219Z,1000.6
2018-08-25T02:55:25.687Z,1000.6
2018-08-25T02:56:27.796Z,1000.6
2018-08-25T02:57:30.275Z,1000.6
2018-08-25T02:58:32.375Z,1000.6
2018-08-25T02:59:34.758Z,1000.6
2018-08-25T03:00:37.149Z,1000.5
2018-08-25T03:01:39.826Z,1000.6
2018-08-25T03:02:41.913Z,1000.5
2018-08-25T03:03:44.024Z,1000.6
2018-08-25T03:04:46.109Z,1000.6
2018-08-25T03:05:48.214Z,1000.6
2018-08-25T03:06:50.326Z,1000.5
2018-08-25T03:07:52.417Z,1000.6
2018-08-25T03:08:54.505Z,1000.6
2018-08-25T03:09:56.608Z,1000.5
2018-08-25T03:10:58.720Z,1000.5
2018-08-25T03:12:01.235Z,1000.5
2018-08-25T03:13:03.629Z,1000.5
2018-08-25T03:14:05.751Z,1000.5
2018-08-25T03:15:07.858Z,1000.4
2018-08-25T03:16:09.939Z,1000.4
2018-08-25T03:17:12.431Z,1000.4
2018-08-25T03:18:14.533Z,1000.4
2018-08-25T03:19:16.907Z,1000.4
2018-08-25T03:20:19.022Z,1000.4
2018-08-25T03:21:21.112Z,1000.3
2018-08-25T03:22:23.208Z,1000.3
2018-08-25T03:23:25.291Z,1000.3
2018-08-25T03:24:27.403Z,1000.3
2018-08-25T03:25:29.800Z,1000.3
2018-08-25T03:26:32.281Z,1000.3
2018-08-25T03:27:34.390Z,1000.4
2018-08-25T03:28:36.475Z,1000.4
2018-08-25T03:29:38.874Z,1000.3
2018-08-25T03:30:40.987Z,1000.4
2018-08-25T03:31:43.481Z,1000.3
2018-08-25T03:32:46.558Z,1000.3
2018-08-25T03:33:48.667Z,1000.3
2018-08-25T03:34:50.761Z,1000.3
2018-08-25T03:35:52.856Z,1000.3
2018-08-25T03:36:55.265Z,1000.4
2018-08-25T03:37:57.354Z,1000.4
2018-08-25T03:38:59.452Z,1000.3
2018-08-25T03:40:01.948Z,1000.3
2018-08-25T03:41:04.044Z,1000.3
2018-08-25T03:42:06.132Z,1000.3
2018-08-25T03:43:08.234Z,1000.3
2018-08-25T03:44:10.330Z,1000.3
2018-08-25T03:45:12.710Z,1000.3
2018-08-25T03:46:15.595Z,1000.3
2018-08-25T03:47:17.710Z,1000.3
2018-08-25T03:48:19.817Z,1000.3
2018-08-25T03:49:21.952Z,1000.3
2018-08-25T03:50:24.043Z,1000.3
2018-08-25T03:51:26.135Z,1000.3
2018-08-25T03:52:28.238Z,1000.3
2018-08-25T03:53:30.323Z,1000.3
2018-08-25T03:54:32.424Z,1000.2
2018-08-25T03:55:34.851Z,1000.3
2018-08-25T03:56:37.207Z,1000.3
2018-08-25T03:57:39.582Z,1000.3
2018-08-25T03:58:41.687Z,1000.3
2018-08-25T03:59:44.071Z,1000.3
2018-08-25T04:00:46.164Z,1000.3
2018-08-25T04:01:48.277Z,1000.3
2018-08-25T04:02:50.649Z,1000.3
2018-08-25T04:03:52.744Z,1000.3
2018-08-25T04:04:54.838Z,1000.3
2018-08-25T04:05:57.258Z,1000.3
2018-08-25T04:06:59.629Z,1000.3
2018-08-25T04:08:01.728Z,1000.3
2018-08-25T04:09:04.218Z,1000.3
2018-08-25T04:10:06.301Z,1000.3
2018-08-25T04:11:08.410Z,1000.3
2018-08-25T04:12:10.823Z,1000.3
2018-08-25T04:13:13.205Z,1000.2
2018-08-25T04:14:15.302Z,1000.2
2018-08-25T04:15:17.405Z,1000.2
2018-08-25T04:16:19.493Z,1000.2
2018-08-25T04:17:21.595Z,1000.2
2018-08-25T04:18:24.372Z,1000.2
2018-08-25T04:19:26.456Z,1000.2
2018-08-25T04:20:28.557Z,1000.2
2018-08-25T04:21:30.671Z,1000.2
2018-08-25T04:22:32.755Z,1000.2
2018-08-25T04:23:34.853Z,1000.2
2018-08-25T04:24:36.956Z,1000.2
2018-08-25T04:25:39.045Z,1000.1
2018-08-25T04:26:41.454Z,1000.1
2018-08-25T04:27:43.546Z,1000.1
2018-08-25T04:28:45.932Z,1000.1
2018-08-25T04:29:48.319Z,1000.2
2018-08-25T04:30:50.420Z,1000.2
2018-08-25T04:31:52.539Z,1000.1
2018-08-25T04:32:54.636Z,1000.1
2018-08-25T04:33:56.719Z,1000.1
2018-08-25T04:34:59.113Z,1000.1
2018-08-25T04:36:01.194Z,1000.1
2018-08-25T04:37:03.288Z,1000.1
2018-08-25T04:38:05.377Z,1000.2
2018-08-25T04:39:07.874Z,1000.2
2018-08-25T04:40:09.957Z,1000.2
2018-08-25T04:41:12.407Z,1000.2
2018-08-25T04:42:14.454Z,1000.2
2018-08-25T04:43:16.536Z,1000.2
2018-08-25T04:44:18.644Z,1000.2
2018-08-25T04:45:20.733Z,1000.2
2018-08-25T04:46:23.109Z,1000.2
2018-08-25T04:47:25.199Z,1000.2
2018-08-25T04:48:27.696Z,1000.2
2018-08-25T04:49:29.779Z,1000.2
2018-08-25T04:50:31.879Z,1000.2
2018-08-25T04:51:33.975Z,1000.2
2018-08-25T04:52:36.444Z,1000.2
2018-08-25T04:53:38.533Z,1000.2
2018-08-25T04:54:40.633Z,1000.2
2018-08-25T04:55:42.718Z,1000.3
2018-08-25T04:56:44.818Z,1000.3
2018-08-25T04:57:47.198Z,1000.3
2018-08-25T04:58:49.282Z,1000.3
2018-08-25T04:59:51.395Z,1000.3
2018-08-25T05:00:53.487Z,1000.3
2018-08-25T05:01:55.913Z,1000.3
2018-08-25T05:02:57.953Z,1000.2
2018-08-25T05:04:00.056Z,1000.3
2018-08-25T05:05:02.137Z,1000.2
2018-08-25T05:06:04.627Z,1000.2
2018-08-25T05:07:07.039Z,1000.2
2018-08-25T05:08:09.428Z,1000.2
2018-08-25T05:09:11.518Z,1000.2
2018-08-25T05:10:14.006Z,1000.2
2018-08-25T05:11:16.092Z,1000.2
2018-08-25T05:12:18.197Z,1000.2
2018-08-25T05:13:20.276Z,1000.2
2018-08-25T05:14:22.376Z,1000.3
2018-08-25T05:15:24.764Z,1000.2
2018-08-25T05:16:27.159Z,1000.2
2018-08-25T05:17:29.261Z,1000.2
2018-08-25T05:18:31.749Z,1000.2
2018-08-25T05:19:33.830Z,1000.2
2018-08-25T05:20:35.925Z,1000.2
2018-08-25T05:21:38.757Z,1000.2
2018-08-25T05:22:41.426Z,1000.2
2018-08-25T05:23:43.529Z,1000.2
2018-08-25T05:24:45.916Z,1000.2
2018-08-25T05:25:47.996Z,1000.2
2018-08-25T05:26:50.103Z,1000.2
2018-08-25T05:27:52.496Z,1000.2
2018-08-25T05:28:54.969Z,1000.2
2018-08-25T05:29:57.063Z,1000.2
2018-08-25T05:30:59.156Z,1000.2
2018-08-25T05:32:01.242Z,1000.2
2018-08-25T05:33:03.643Z,1000.3
2018-08-25T05:34:05.741Z,1000.3
2018-08-25T05:35:07.826Z,1000.2
2018-08-25T05:36:09.913Z,1000.3
2018-08-25T05:37:12.020Z,1000.2
2018-08-25T05:38:14.117Z,1000.2
2018-08-25T05:39:16.212Z,1000.3
2018-08-25T05:40:18.307Z,1000.3
2018-08-25T05:41:20.690Z,1000.3
2018-08-25T05:42:23.081Z,1000.3
2018-08-25T05:43:25.175Z,1000.2
2018-08-25T05:44:27.563Z,1000.2
2018-08-25T05:45:29.934Z,1000.2
2018-08-25T05:46:32.034Z,1000.2
2018-08-25T05:47:34.133Z,1000.1
2018-08-25T05:48:36.566Z,1000.1
2018-08-25T05:49:38.937Z,1000
2018-08-25T05:50:41.040Z,1000.2
2018-08-25T05:51:43.137Z,1000.1
2018-08-25T05:52:45.512Z,1000.1
2018-08-25T05:53:47.607Z,1000.1
2018-08-25T05:54:49.708Z,1000.1
2018-08-25T05:55:52.180Z,1000
2018-08-25T05:56:54.296Z,1000
2018-08-25T05:57:56.388Z,1000
2018-08-25T05:58:58.759Z,1000
2018-08-25T06:00:00.845Z,1000
2018-08-25T06:01:04.022Z,1000
2018-08-25T06:02:06.107Z,1000
2018-08-25T06:03:08.204Z,1000
2018-08-25T06:04:10.302Z,1000
2018-08-25T06:05:12.389Z,1000
2018-08-25T06:06:14.495Z,1000
2018-08-25T06:07:16.581Z,999.9
2018-08-25T06:08:19.361Z,1000
2018-08-25T06:09:21.744Z,1000
2018-08-25T06:10:23.846Z,1000
2018-08-25T06:11:25.931Z,1000
2018-08-25T06:12:28.026Z,1000
2018-08-25T06:13:30.175Z,999.9
2018-08-25T06:14:33.033Z,999.9
2018-08-25T06:15:35.532Z,999.9
2018-08-25T06:16:38.322Z,999.9
2018-08-25T06:17:40.431Z,1000
2018-08-25T06:18:42.889Z,1000
2018-08-25T06:19:44.990Z,1000
2018-08-25T06:20:47.080Z,1000
2018-08-25T06:21:49.475Z,999.9
2018-08-25T06:22:51.586Z,999.9
2018-08-25T06:23:53.667Z,999.9
2018-08-25T06:24:56.158Z,999.9
2018-08-25T06:25:58.260Z,999.9
2018-08-25T06:27:00.361Z,999.9
2018-08-25T06:28:02.446Z,999.9
2018-08-25T06:29:04.850Z,999.9
2018-08-25T06:30:07.565Z,999.9
2018-08-25T06:31:10.063Z,999.9
2018-08-25T06:32:12.170Z,999.9
2018-08-25T06:33:14.266Z,999.9
2018-08-25T06:34:16.355Z,999.9
2018-08-25T06:35:18.459Z,999.9
2018-08-25T06:36:20.866Z,999.9
2018-08-25T06:37:23.605Z,999.8
2018-08-25T06:38:26.099Z,999.9
2018-08-25T06:39:28.175Z,999.8
2018-08-25T06:40:30.275Z,999.9
2018-08-25T06:41:32.371Z,999.8
2018-08-25T06:42:34.536Z,999.8
2018-08-25T06:43:36.577Z,999.8
2018-08-25T06:44:39.074Z,999.8
2018-08-25T06:45:41.180Z,999.8
2018-08-25T06:46:43.269Z,999.8
2018-08-25T06:47:45.376Z,999.8
2018-08-25T06:48:47.462Z,999.8
2018-08-25T06:49:49.563Z,999.8
2018-08-25T06:50:51.652Z,999.8
2018-08-25T06:51:53.762Z,999.8
2018-08-25T06:52:55.847Z,999.8
2018-08-25T06:53:57.955Z,999.8
2018-08-25T06:55:00.055Z,999.8
2018-08-25T06:56:02.142Z,999.8
2018-08-25T06:57:04.246Z,999.8
2018-08-25T06:58:06.641Z,999.8
2018-08-25T06:59:08.727Z,999.8
2018-08-25T07:00:10.828Z,999.8
2018-08-25T07:01:13.244Z,999.8
2018-08-25T07:02:15.348Z,999.8
2018-08-25T07:03:17.724Z,999.8
2018-08-25T07:04:19.824Z,999.8
2018-08-25T07:05:22.221Z,999.8
2018-08-25T07:06:24.322Z,999.8
2018-08-25T07:07:26.793Z,999.8
2018-08-25T07:08:28.903Z,999.8
2018-08-25T07:09:30.997Z,999.7
2018-08-25T07:10:33.089Z,999.7
2018-08-25T07:11:35.195Z,999.8
2018-08-25T07:12:37.285Z,999.8
2018-08-25T07:13:39.387Z,999.7
2018-08-25T07:14:41.776Z,999.7
2018-08-25T07:15:43.880Z,999.7
2018-08-25T07:16:45.963Z,999.8
2018-08-25T07:17:48.073Z,999.7
2018-08-25T07:18:50.525Z,999.7
2018-08-25T07:19:52.601Z,999.7
2018-08-25T07:20:55.004Z,999.8
2018-08-25T07:21:57.095Z,999.8
2018-08-25T07:22:59.197Z,999.7
2018-08-25T07:24:01.585Z,999.8
2018-08-25T07:25:03.694Z,999.7
2018-08-25T07:26:05.813Z,999.7
2018-08-25T07:27:07.889Z,999.7
2018-08-25T07:28:09.998Z,999.7
2018-08-25T07:29:12.088Z,999.7
2018-08-25T07:30:14.205Z,999.7
2018-08-25T07:31:16.624Z,999.7
2018-08-25T07:32:18.716Z,999.7
2018-08-25T07:33:20.816Z,999.6
2018-08-25T07:34:23.230Z,999.6
2018-08-25T07:35:25.609Z,999.5
2018-08-25T07:36:27.719Z,999.6
2018-08-25T07:37:29.816Z,999.6
2018-08-25T07:38:31.906Z,999.5
2018-08-25T07:39:34.006Z,999.6
2018-08-25T07:40:36.102Z,999.6
2018-08-25T07:41:38.212Z,999.6
2018-08-25T07:42:40.303Z,999.6
2018-08-25T07:43:42.396Z,999.6
2018-08-25T07:44:44.518Z,999.6
2018-08-25T07:45:46.901Z,999.7
2018-08-25T07:46:49.002Z,999.6
2018-08-25T07:47:51.396Z,999.7
2018-08-25T07:48:53.505Z,999.7
2018-08-25T07:49:55.593Z,999.7
2018-08-25T07:50:58.048Z,999.8
2018-08-25T07:52:00.096Z,999.8
2018-08-25T07:53:02.184Z,999.7
2018-08-25T07:54:04.293Z,999.7
2018-08-25T07:55:06.381Z,999.7
2018-08-25T07:56:08.480Z,999.8
2018-08-25T07:57:10.570Z,999.8
2018-08-25T07:58:12.677Z,999.8
2018-08-25T07:59:15.188Z,999.9
2018-08-25T08:00:17.688Z,999.8
2018-08-25T08:01:19.791Z,999.8
2018-08-25T08:02:22.266Z,999.9
2018-08-25T08:03:24.375Z,999.8
2018-08-25T08:04:26.469Z,999.8
2018-08-25T08:05:28.617Z,999.7
2018-08-25T08:06:30.654Z,999.7
2018-08-25T08:07:32.761Z,999.7
2018-08-25T08:08:34.855Z,999.7
2018-08-25T08:09:36.966Z,999.7
2018-08-25T08:10:39.456Z,999.7
2018-08-25T08:11:41.573Z,999.7
2018-08-25T08:12:43.645Z,999.7
2018-08-25T08:13:46.040Z,999.7
2018-08-25T08:14:48.127Z,999.6
2018-08-25T08:15:50.234Z,999.6
2018-08-25T08:16:52.629Z,999.6
2018-08-25T08:17:54.736Z,999.5
2018-08-25T08:18:56.821Z,999.5
2018-08-25T08:19:58.932Z,999.5
2018-08-25T08:21:01.042Z,999.5
2018-08-25T08:22:03.435Z,999.5
2018-08-25T08:23:05.843Z,999.5
2018-08-25T08:24:07.957Z,999.5
2018-08-25T08:25:10.071Z,999.5
2018-08-25T08:26:12.451Z,999.5
2018-08-25T08:27:14.570Z,999.4
2018-08-25T08:28:16.664Z,999.5
2018-08-25T08:29:18.771Z,999.4
2018-08-25T08:30:20.869Z,999.4
2018-08-25T08:31:22.987Z,999.4
2018-08-25T08:32:25.088Z,999.4
2018-08-25T08:33:27.901Z,999.5
2018-08-25T08:34:30.012Z,999.4
2018-08-25T08:35:32.409Z,999.4
2018-08-25T08:36:34.521Z,999.3
2018-08-25T08:37:36.621Z,999.3
2018-08-25T08:38:38.713Z,999.3
2018-08-25T08:39:40.934Z,999.4
2018-08-25T08:40:43.450Z,999.4
2018-08-25T08:41:45.543Z,999.4
2018-08-25T08:42:47.659Z,999.3
2018-08-25T08:43:50.440Z,999.4
2018-08-25T08:44:52.560Z,999.4
2018-08-25T08:45:54.709Z,999.4
2018-08-25T08:46:56.828Z,999.4
2018-08-25T08:47:58.918Z,999.4
2018-08-25T08:49:01.026Z,999.3
2018-08-25T08:50:03.205Z,999.3
2018-08-25T08:51:05.610Z,999.3
2018-08-25T08:52:08.906Z,999.4
2018-08-25T08:53:11.007Z,999.4
2018-08-25T08:54:13.107Z,999.3
2018-08-25T08:55:15.206Z,999.4
2018-08-25T08:56:17.318Z,999.4
2018-08-25T08:57:19.411Z,999.4
2018-08-25T08:58:21.917Z,999.4
2018-08-25T08:59:24.015Z,999.4
2018-08-25T09:00:26.694Z,999.4
2018-08-25T09:01:28.829Z,999.4
2018-08-25T09:02:30.933Z,999.4
2018-08-25T09:03:33.182Z,999.3
2018-08-25T09:04:35.126Z,999.3
2018-08-25T09:05:37.319Z,999.4
2018-08-25T09:06:39.708Z,999.3
2018-08-25T09:07:41.811Z,999.4
2018-08-25T09:08:44.508Z,999.3
2018-08-25T09:09:46.599Z,999.4
2018-08-25T09:10:48.699Z,999.3
2018-08-25T09:11:50.882Z,999.4
2018-08-25T09:12:53.336Z,999.3
2018-08-25T09:13:55.429Z,999.3
2018-08-25T09:14:57.532Z,999.3
2018-08-25T09:15:59.627Z,999.3
2018-08-25T09:17:01.745Z,999.3
2018-08-25T09:18:03.850Z,999.3
2018-08-25T09:19:06.273Z,999.3
2018-08-25T09:20:08.365Z,999.3
2018-08-25T09:21:10.474Z,999.3
2018-08-25T09:22:12.569Z,999.3
2018-08-25T09:23:14.663Z,999.2
2018-08-25T09:24:16.768Z,999.3
2018-08-25T09:25:18.854Z,999.3
2018-08-25T09:26:20.956Z,999.3
2018-08-25T09:27:23.518Z,999.3
2018-08-25T09:28:25.879Z,999.3
2018-08-25T09:29:27.968Z,999.3
2018-08-25T09:30:30.081Z,999.3
2018-08-25T09:31:32.520Z,999.3
2018-08-25T09:32:34.613Z,999.3
2018-08-25T09:33:36.713Z,999.3
2018-08-25T09:34:38.821Z,999.3
2018-08-25T09:35:40.968Z,999.3
2018-08-25T09:36:43.161Z,999.3
2018-08-25T09:37:45.695Z,999.3
2018-08-25T09:38:48.407Z,999.3
2018-08-25T09:39:50.507Z,999.3
2018-08-25T09:40:53.294Z,999.2
2018-08-25T09:41:55.412Z,999.3
2018-08-25T09:42:57.505Z,999.3
2018-08-25T09:43:59.602Z,999.2
2018-08-25T09:45:02.030Z,999.3
2018-08-25T09:46:04.517Z,999.2
2018-08-25T09:47:06.718Z,999.2
2018-08-25T09:48:08.722Z,999.2
2018-08-25T09:49:10.815Z,999.2
2018-08-25T09:50:12.912Z,999.2
2018-08-25T09:51:15.312Z,999.2
2018-08-25T09:52:17.417Z,999.2
2018-08-25T09:53:19.855Z,999.2
2018-08-25T09:54:22.307Z,999.2
2018-08-25T09:55:24.404Z,999.2
2018-08-25T09:56:26.498Z,999.1
2018-08-25T09:57:28.607Z,999.2
2018-08-25T09:58:30.696Z,999.2
2018-08-25T09:59:33.498Z,999.2
2018-08-25T10:00:35.598Z,999.2
2018-08-25T10:01:37.711Z,999.2
2018-08-25T10:02:39.794Z,999.2
2018-08-25T10:03:41.900Z,999.1
2018-08-25T10:04:44.001Z,999.1
2018-08-25T10:05:46.092Z,999.1
2018-08-25T10:06:48.208Z,999.1
2018-08-25T10:07:50.609Z,999.1
2018-08-25T10:08:52.706Z,999.1
2018-08-25T10:09:55.200Z,999
2018-08-25T10:10:57.382Z,999
2018-08-25T10:12:00.019Z,999
2018-08-25T10:13:02.379Z,999
2018-08-25T10:14:04.525Z,999
2018-08-25T10:15:07.128Z,999
2018-08-25T10:16:09.642Z,999
2018-08-25T10:17:12.231Z,999
2018-08-25T10:18:14.326Z,999
2018-08-25T10:19:16.771Z,999.1
2018-08-25T10:20:18.882Z,999
2018-08-25T10:21:20.977Z,999
2018-08-25T10:22:23.306Z,999
2018-08-25T10:23:26.278Z,999
2018-08-25T10:24:29.104Z,999
2018-08-25T10:25:31.263Z,999.1
2018-08-25T10:26:33.724Z,999.2
2018-08-25T10:27:36.198Z,999.3
2018-08-25T10:28:38.313Z,999.3
2018-08-25T10:29:40.706Z,999.3
2018-08-25T10:30:43.397Z,999.4
2018-08-25T10:31:45.821Z,999.4
2018-08-25T10:32:47.934Z,999.5
2018-08-25T10:33:50.329Z,999.5
2018-08-25T10:34:53.103Z,999.6
2018-08-25T10:35:55.607Z,999.6
2018-08-25T10:36:57.705Z,999.6
2018-08-25T10:37:59.804Z,999.7
2018-08-25T10:39:01.911Z,999.7
2018-08-25T10:40:03.993Z,999.7
2018-08-25T10:41:06.496Z,999.7
2018-08-25T10:42:08.708Z,999.7
2018-08-25T10:43:10.699Z,999.8
2018-08-25T10:44:13.074Z,999.7
2018-08-25T10:45:15.180Z,999.7
2018-08-25T10:46:17.273Z,999.7
2018-08-25T10:47:19.366Z,999.7
2018-08-25T10:48:21.823Z,999.7
2018-08-25T10:49:24.206Z,999.7
2018-08-25T10:50:26.307Z,999.7
2018-08-25T10:51:28.684Z,999.7
2018-08-25T10:52:30.789Z,999.6
2018-08-25T10:53:32.902Z,999.6
2018-08-25T10:54:35.000Z,999.6
2018-08-25T10:55:37.106Z,999.6
2018-08-25T10:56:39.491Z,999.6
2018-08-25T10:57:42.319Z,999.5
2018-08-25T10:58:44.668Z,999.5
2018-08-25T10:59:46.798Z,999.5
2018-08-25T11:00:49.131Z,999.5
2018-08-25T11:01:52.391Z,999.5
2018-08-25T11:02:54.591Z,999.5
2018-08-25T11:03:56.684Z,999.5
2018-08-25T11:04:59.197Z,999.4
2018-08-25T11:06:01.312Z,999.4
2018-08-25T11:07:03.417Z,999.4
2018-08-25T11:08:05.530Z,999.4
2018-08-25T11:09:07.643Z,999.4
2018-08-25T11:10:09.733Z,999.3
2018-08-25T11:11:11.830Z,999.4
2018-08-25T11:12:13.942Z,999.3
2018-08-25T11:13:16.417Z,999.4
2018-08-25T11:14:18.850Z,999.3
2018-08-25T11:15:21.244Z,999.3
2018-08-25T11:16:23.801Z,999.3
2018-08-25T11:17:25.839Z,999.2
2018-08-25T11:18:28.252Z,999.3
2018-08-25T11:19:30.351Z,999.3
2018-08-25T11:20:32.735Z,999.4
2018-08-25T11:21:35.137Z,999.3
2018-08-25T11:22:37.228Z,999.4
2018-08-25T11:23:39.373Z,999.4
2018-08-25T11:24:41.886Z,999.4
2018-08-25T11:25:44.283Z,999.3
2018-08-25T11:26:46.374Z,999.3
2018-08-25T11:27:48.481Z,999.3
2018-08-25T11:28:50.575Z,999.4
2018-08-25T11:29:52.682Z,999.3
2018-08-25T11:30:55.477Z,999.3
2018-08-25T11:31:57.579Z,999.3
2018-08-25T11:32:59.667Z,999.3
2018-08-25T11:34:01.780Z,999.3
2018-08-25T11:35:03.876Z,999.3
2018-08-25T11:36:06.369Z,999.3
2018-08-25T11:37:08.493Z,999.3
2018-08-25T11:38:11.147Z,999.3
2018-08-25T11:39:13.115Z,999.3
2018-08-25T11:40:15.528Z,999.1
2018-08-25T11:41:17.635Z,999.1
2018-08-25T11:42:19.728Z,999.1
2018-08-25T11:43:22.124Z,999.1
2018-08-25T11:44:24.229Z,999.1
2018-08-25T11:45:26.323Z,999
2018-08-25T11:46:28.783Z,999.1
2018-08-25T11:47:30.876Z,999
2018-08-25T11:48:32.975Z,999
2018-08-25T11:49:35.073Z,999.1
2018-08-25T11:50:37.184Z,999.1
2018-08-25T11:51:39.280Z,999.1
2018-08-25T11:52:41.392Z,999
2018-08-25T11:53:43.495Z,999
2018-08-25T11:54:45.977Z,998.9
2018-08-25T11:55:48.089Z,999
2018-08-25T11:56:50.197Z,998.9
2018-08-25T11:57:52.578Z,998.9
2018-08-25T11:58:54.679Z,999
2018-08-25T11:59:56.790Z,999
2018-08-25T12:00:58.891Z,999
2018-08-25T12:02:01.055Z,999
2018-08-25T12:03:03.834Z,998.9
2018-08-25T12:04:06.797Z,998.8
2018-08-25T12:05:08.903Z,998.9
2018-08-25T12:06:11.007Z,999
2018-08-25T12:07:13.126Z,998.9
2018-08-25T12:08:15.529Z,998.9
2018-08-25T12:09:18.028Z,998.9
2018-08-25T12:10:20.555Z,998.9
2018-08-25T12:11:22.644Z,998.9
2018-08-25T12:12:24.747Z,998.9
2018-08-25T12:13:26.851Z,998.9
2018-08-25T12:14:28.959Z,998.9
2018-08-25T12:15:31.359Z,998.9
2018-08-25T12:16:33.466Z,998.9
2018-08-25T12:17:35.570Z,998.9
2018-08-25T12:18:37.666Z,998.9
2018-08-25T12:19:39.783Z,998.9
2018-08-25T12:20:41.876Z,998.9
2018-08-25T12:21:43.979Z,998.9
2018-08-25T12:22:46.073Z,999
2018-08-25T12:23:48.189Z,999
2018-08-25T12:24:50.283Z,998.9
2018-08-25T12:25:53.077Z,998.8
2018-08-25T12:26:55.569Z,998.9
2018-08-25T12:27:57.663Z,998.9
2018-08-25T12:28:59.773Z,998.8
2018-08-25T12:30:02.183Z,998.8
2018-08-25T12:31:04.728Z,998.8
2018-08-25T12:32:06.823Z,998.8
2018-08-25T12:33:08.932Z,998.9
2018-08-25T12:34:11.028Z,998.8
2018-08-25T12:35:13.527Z,998.8
2018-08-25T12:36:15.915Z,998.8
2018-08-25T12:37:18.002Z,998.9
2018-08-25T12:38:20.108Z,998.8
2018-08-25T12:39:22.545Z,998.8
2018-08-25T12:40:24.884Z,998.8
2018-08-25T12:41:26.989Z,998.8
2018-08-25T12:42:29.096Z,998.8
2018-08-25T12:43:31.595Z,998.8
2018-08-25T12:44:35.010Z,998.7
2018-08-25T12:45:37.114Z,998.8
2018-08-25T12:46:39.212Z,998.8
2018-08-25T12:47:41.317Z,998.7
2018-08-25T12:48:43.449Z,998.7
2018-08-25T12:49:45.516Z,998.7
2018-08-25T12:50:47.616Z,998.7
2018-08-25T12:51:50.096Z,998.8
2018-08-25T12:52:52.211Z,998.8
2018-08-25T12:53:54.303Z,998.6
2018-08-25T12:54:56.406Z,998.7
2018-08-25T12:55:58.499Z,998.8
2018-08-25T12:57:00.613Z,998.7
2018-08-25T12:58:02.716Z,998.8
2018-08-25T12:59:05.225Z,998.8
2018-08-25T13:00:07.708Z,998.8
2018-08-25T13:01:09.793Z,998.9
2018-08-25T13:02:12.297Z,998.7
2018-08-25T13:03:14.404Z,998.8
2018-08-25T13:04:16.497Z,998.9
2018-08-25T13:05:18.891Z,998.9
2018-08-25T13:06:21.001Z,999
2018-08-25T13:07:23.108Z,999
2018-08-25T13:08:25.643Z,999.1
2018-08-25T13:09:27.753Z,999
2018-08-25T13:10:29.839Z,999
2018-08-25T13:11:32.329Z,999.1
2018-08-25T13:12:34.437Z,999
2018-08-25T13:13:36.530Z,999.1
2018-08-25T13:14:38.691Z,999.1
2018-08-25T13:15:41.573Z,999.2